sensor_id;sensor_type;location;lat;lon;timestamp;temperature;humidity
65072;DHT22;51663;52.310;17.016;2023-07-28T00:00:07;37.40;33.30
65072;DHT22;51663;52.310;17.016;2023-07-28T00:03:30;37.50;33.20
65072;DHT22;51663;52.310;17.016;2023-07-28T00:06:33;37.50;33.20
65072;DHT22;51663;52.310;17.016;2023-07-28T00:09:36;37.50;33.10
65072;DHT22;51663;52.310;17.016;2023-07-28T00:12:38;37.40;33.20
65072;DHT22;51663;52.310;17.016;2023-07-28T00:15:40;37.40;33.20
65072;DHT22;51663;52.310;17.016;2023-07-28T00:18:43;37.40;33.20
65072;DHT22;51663;52.310;17.016;2023-07-28T00:21:45;37.30;33.30
65072;DHT22;51663;52.310;17.016;2023-07-28T00:24:47;37.30;33.30
65072;DHT22;51663;52.310;17.016;2023-07-28T00:27:49;37.40;33.30
65072;DHT22;51663;52.310;17.016;2023-07-28T00:30:52;37.40;33.00
65072;DHT22;51663;52.310;17.016;2023-07-28T00:33:54;37.20;33.00
65072;DHT22;51663;52.310;17.016;2023-07-28T00:36:57;37.00;33.40
65072;DHT22;51663;52.310;17.016;2023-07-28T00:39:59;37.20;33.10
65072;DHT22;51663;52.310;17.016;2023-07-28T00:43:02;37.00;33.20
65072;DHT22;51663;52.310;17.016;2023-07-28T00:46:04;37.10;33.30
65072;DHT22;51663;52.310;17.016;2023-07-28T00:49:06;37.10;33.10
65072;DHT22;51663;52.310;17.016;2023-07-28T00:52:09;37.20;33.10
65072;DHT22;51663;52.310;17.016;2023-07-28T00:55:12;37.30;33.10
65072;DHT22;51663;52.310;17.016;2023-07-28T00:58:14;37.30;33.20
65072;DHT22;51663;52.310;17.016;2023-07-28T01:01:16;37.10;33.40
65072;DHT22;51663;52.310;17.016;2023-07-28T01:04:18;37.10;33.60
65072;DHT22;51663;52.310;17.016;2023-07-28T01:11:16;37.10;33.70
65072;DHT22;51663;52.310;17.016;2023-07-28T01:14:19;37.10;33.60
65072;DHT22;51663;52.310;17.016;2023-07-28T01:17:21;37.20;34.20
65072;DHT22;51663;52.310;17.016;2023-07-28T01:20:31;37.10;34.70
65072;DHT22;51663;52.310;17.016;2023-07-28T01:26:40;37.10;34.50
65072;DHT22;51663;52.310;17.016;2023-07-28T01:29:43;37.10;35.00
65072;DHT22;51663;52.310;17.016;2023-07-28T01:32:47;37.10;34.70
65072;DHT22;51663;52.310;17.016;2023-07-28T01:35:49;37.10;35.00
65072;DHT22;51663;52.310;17.016;2023-07-28T01:38:51;37.10;34.60
65072;DHT22;51663;52.310;17.016;2023-07-28T01:41:54;37.10;34.70
65072;DHT22;51663;52.310;17.016;2023-07-28T01:44:56;37.10;34.60
65072;DHT22;51663;52.310;17.016;2023-07-28T01:47:58;37.10;35.20
65072;DHT22;51663;52.310;17.016;2023-07-28T01:51:04;36.90;35.20
65072;DHT22;51663;52.310;17.016;2023-07-28T01:54:06;36.90;36.20
65072;DHT22;51663;52.310;17.016;2023-07-28T01:57:08;36.90;35.70
65072;DHT22;51663;52.310;17.016;2023-07-28T02:00:11;36.80;35.90
65072;DHT22;51663;52.310;17.016;2023-07-28T02:03:14;36.80;36.30
65072;DHT22;51663;52.310;17.016;2023-07-28T02:06:17;36.80;36.50
65072;DHT22;51663;52.310;17.016;2023-07-28T02:09:19;36.90;36.50
65072;DHT22;51663;52.310;17.016;2023-07-28T02:12:21;36.80;36.40
65072;DHT22;51663;52.310;17.016;2023-07-28T02:15:24;36.90;36.70
65072;DHT22;51663;52.310;17.016;2023-07-28T02:18:28;36.80;37.10
65072;DHT22;51663;52.310;17.016;2023-07-28T02:21:30;36.80;36.50
65072;DHT22;51663;52.310;17.016;2023-07-28T02:24:32;36.80;36.40
65072;DHT22;51663;52.310;17.016;2023-07-28T02:27:35;36.70;36.60
65072;DHT22;51663;52.310;17.016;2023-07-28T02:30:37;36.90;36.70
65072;DHT22;51663;52.310;17.016;2023-07-28T02:33:39;36.90;36.50
65072;DHT22;51663;52.310;17.016;2023-07-28T02:36:42;37.00;37.00
65072;DHT22;51663;52.310;17.016;2023-07-28T02:39:44;37.10;36.50
65072;DHT22;51663;52.310;17.016;2023-07-28T02:42:46;37.10;36.40
65072;DHT22;51663;52.310;17.016;2023-07-28T02:45:53;37.10;36.50
65072;DHT22;51663;52.310;17.016;2023-07-28T02:48:56;37.00;36.70
65072;DHT22;51663;52.310;17.016;2023-07-28T02:51:58;37.00;36.80
65072;DHT22;51663;52.310;17.016;2023-07-28T02:55:00;37.00;37.20
65072;DHT22;51663;52.310;17.016;2023-07-28T02:58:03;37.00;36.90
65072;DHT22;51663;52.310;17.016;2023-07-28T03:01:05;37.00;37.10
65072;DHT22;51663;52.310;17.016;2023-07-28T03:04:07;37.00;36.90
65072;DHT22;51663;52.310;17.016;2023-07-28T03:07:09;37.00;36.80
65072;DHT22;51663;52.310;17.016;2023-07-28T03:10:12;36.90;37.10
65072;DHT22;51663;52.310;17.016;2023-07-28T03:13:19;36.80;37.00
65072;DHT22;51663;52.310;17.016;2023-07-28T03:16:22;37.00;37.10
65072;DHT22;51663;52.310;17.016;2023-07-28T03:19:26;36.90;37.30
65072;DHT22;51663;52.310;17.016;2023-07-28T03:22:28;36.90;37.70
65072;DHT22;51663;52.310;17.016;2023-07-28T03:25:31;36.70;37.50
65072;DHT22;51663;52.310;17.016;2023-07-28T03:28:33;36.60;37.50
65072;DHT22;51663;52.310;17.016;2023-07-28T03:31:36;36.70;37.80
65072;DHT22;51663;52.310;17.016;2023-07-28T03:34:39;36.80;37.60
65072;DHT22;51663;52.310;17.016;2023-07-28T03:37:41;36.80;37.50
65072;DHT22;51663;52.310;17.016;2023-07-28T03:40:43;36.90;37.80
65072;DHT22;51663;52.310;17.016;2023-07-28T03:43:46;36.90;37.20
65072;DHT22;51663;52.310;17.016;2023-07-28T03:46:48;37.00;37.60
65072;DHT22;51663;52.310;17.016;2023-07-28T03:49:50;37.00;37.80
65072;DHT22;51663;52.310;17.016;2023-07-28T03:52:53;37.00;37.50
65072;DHT22;51663;52.310;17.016;2023-07-28T03:55:55;37.00;37.60
65072;DHT22;51663;52.310;17.016;2023-07-28T03:59:02;37.00;37.70
65072;DHT22;51663;52.310;17.016;2023-07-28T04:02:05;36.90;37.70
65072;DHT22;51663;52.310;17.016;2023-07-28T04:05:08;37.00;38.10
65072;DHT22;51663;52.310;17.016;2023-07-28T04:08:10;37.00;37.50
65072;DHT22;51663;52.310;17.016;2023-07-28T04:11:13;37.10;37.50
65072;DHT22;51663;52.310;17.016;2023-07-28T04:14:17;37.10;37.70
65072;DHT22;51663;52.310;17.016;2023-07-28T04:17:19;37.10;37.60
65072;DHT22;51663;52.310;17.016;2023-07-28T04:20:21;37.10;37.40
65072;DHT22;51663;52.310;17.016;2023-07-28T04:23:24;37.10;37.50
65072;DHT22;51663;52.310;17.016;2023-07-28T04:26:26;37.20;37.70
65072;DHT22;51663;52.310;17.016;2023-07-28T04:29:28;37.20;37.90
65072;DHT22;51663;52.310;17.016;2023-07-28T04:32:31;37.10;37.90
65072;DHT22;51663;52.310;17.016;2023-07-28T04:35:34;37.30;37.70
65072;DHT22;51663;52.310;17.016;2023-07-28T04:38:36;37.20;37.70
65072;DHT22;51663;52.310;17.016;2023-07-28T04:41:40;37.10;37.90
65072;DHT22;51663;52.310;17.016;2023-07-28T04:44:42;37.00;38.00
65072;DHT22;51663;52.310;17.016;2023-07-28T04:47:46;37.00;38.20
65072;DHT22;51663;52.310;17.016;2023-07-28T04:50:48;37.10;38.30
65072;DHT22;51663;52.310;17.016;2023-07-28T04:53:51;37.00;38.10
65072;DHT22;51663;52.310;17.016;2023-07-28T04:56:56;36.70;38.60
65072;DHT22;51663;52.310;17.016;2023-07-28T04:59:59;36.80;38.70
65072;DHT22;51663;52.310;17.016;2023-07-28T05:03:02;36.60;38.60
65072;DHT22;51663;52.310;17.016;2023-07-28T05:06:05;36.60;38.70
65072;DHT22;51663;52.310;17.016;2023-07-28T05:09:07;36.80;38.90
65072;DHT22;51663;52.310;17.016;2023-07-28T05:12:09;36.80;39.00
65072;DHT22;51663;52.310;17.016;2023-07-28T05:15:15;36.80;38.80
65072;DHT22;51663;52.310;17.016;2023-07-28T05:18:17;36.80;38.70
65072;DHT22;51663;52.310;17.016;2023-07-28T05:21:20;36.80;39.30
65072;DHT22;51663;52.310;17.016;2023-07-28T05:24:22;37.00;39.00
65072;DHT22;51663;52.310;17.016;2023-07-28T05:27:24;36.90;39.00
65072;DHT22;51663;52.310;17.016;2023-07-28T05:30:27;36.90;39.30
65072;DHT22;51663;52.310;17.016;2023-07-28T05:33:32;37.10;39.00
65072;DHT22;51663;52.310;17.016;2023-07-28T05:36:35;37.20;38.80
65072;DHT22;51663;52.310;17.016;2023-07-28T05:39:37;37.20;38.70
65072;DHT22;51663;52.310;17.016;2023-07-28T05:42:40;37.00;39.20
65072;DHT22;51663;52.310;17.016;2023-07-28T05:45:46;37.30;38.80
65072;DHT22;51663;52.310;17.016;2023-07-28T05:48:49;37.20;38.90
65072;DHT22;51663;52.310;17.016;2023-07-28T05:51:51;37.10;38.90
65072;DHT22;51663;52.310;17.016;2023-07-28T05:54:53;37.30;39.50
65072;DHT22;51663;52.310;17.016;2023-07-28T05:57:57;37.00;39.30
65072;DHT22;51663;52.310;17.016;2023-07-28T06:01:00;37.10;39.00
65072;DHT22;51663;52.310;17.016;2023-07-28T06:04:02;37.10;39.70
65072;DHT22;51663;52.310;17.016;2023-07-28T06:07:07;37.30;39.70
65072;DHT22;51663;52.310;17.016;2023-07-28T06:10:09;37.40;39.60
65072;DHT22;51663;52.310;17.016;2023-07-28T06:13:12;37.40;39.30
65072;DHT22;51663;52.310;17.016;2023-07-28T06:16:14;37.50;39.40
65072;DHT22;51663;52.310;17.016;2023-07-28T06:19:16;37.40;38.90
65072;DHT22;51663;52.310;17.016;2023-07-28T06:22:25;37.30;39.70
65072;DHT22;51663;52.310;17.016;2023-07-28T06:25:29;37.30;39.50
65072;DHT22;51663;52.310;17.016;2023-07-28T06:28:31;37.50;39.60
65072;DHT22;51663;52.310;17.016;2023-07-28T06:31:34;37.00;39.80
65072;DHT22;51663;52.310;17.016;2023-07-28T06:34:36;37.10;40.20
65072;DHT22;51663;52.310;17.016;2023-07-28T06:37:39;37.30;40.20
65072;DHT22;51663;52.310;17.016;2023-07-28T06:40:41;37.50;39.90
65072;DHT22;51663;52.310;17.016;2023-07-28T06:43:43;37.50;40.10
65072;DHT22;51663;52.310;17.016;2023-07-28T06:46:46;37.50;39.90
65072;DHT22;51663;52.310;17.016;2023-07-28T06:49:49;37.40;40.30
65072;DHT22;51663;52.310;17.016;2023-07-28T06:52:51;37.30;40.20
65072;DHT22;51663;52.310;17.016;2023-07-28T06:55:57;37.40;40.20
65072;DHT22;51663;52.310;17.016;2023-07-28T06:58:59;37.40;40.40
65072;DHT22;51663;52.310;17.016;2023-07-28T07:02:16;37.40;40.50
65072;DHT22;51663;52.310;17.016;2023-07-28T07:05:18;37.60;40.30
65072;DHT22;51663;52.310;17.016;2023-07-28T07:08:21;36.90;41.20
65072;DHT22;51663;52.310;17.016;2023-07-28T07:11:23;37.00;41.50
65072;DHT22;51663;52.310;17.016;2023-07-28T07:14:26;37.10;41.10
65072;DHT22;51663;52.310;17.016;2023-07-28T07:17:28;37.20;41.50
65072;DHT22;51663;52.310;17.016;2023-07-28T07:20:35;37.20;41.50
65072;DHT22;51663;52.310;17.016;2023-07-28T07:23:38;37.40;41.50
65072;DHT22;51663;52.310;17.016;2023-07-28T07:26:41;37.30;41.50
65072;DHT22;51663;52.310;17.016;2023-07-28T07:29:44;37.50;41.60
65072;DHT22;51663;52.310;17.016;2023-07-28T07:32:46;37.60;41.30
65072;DHT22;51663;52.310;17.016;2023-07-28T07:35:48;37.50;41.70
65072;DHT22;51663;52.310;17.016;2023-07-28T07:38:51;38.00;41.40
65072;DHT22;51663;52.310;17.016;2023-07-28T07:41:54;38.10;40.90
65072;DHT22;51663;52.310;17.016;2023-07-28T07:44:57;38.30;40.50
65072;DHT22;51663;52.310;17.016;2023-07-28T07:47:59;38.30;41.00
65072;DHT22;51663;52.310;17.016;2023-07-28T07:51:03;38.10;40.80
65072;DHT22;51663;52.310;17.016;2023-07-28T07:54:05;38.20;40.80
65072;DHT22;51663;52.310;17.016;2023-07-28T07:57:08;38.50;40.60
65072;DHT22;51663;52.310;17.016;2023-07-28T08:00:11;38.60;40.00
65072;DHT22;51663;52.310;17.016;2023-07-28T08:03:13;38.70;40.40
65072;DHT22;51663;52.310;17.016;2023-07-28T08:06:17;38.90;39.70
65072;DHT22;51663;52.310;17.016;2023-07-28T08:09:19;38.50;39.90
65072;DHT22;51663;52.310;17.016;2023-07-28T08:12:21;38.60;39.90
65072;DHT22;51663;52.310;17.016;2023-07-28T08:15:24;38.60;40.60
65072;DHT22;51663;52.310;17.016;2023-07-28T08:18:26;38.80;39.70
65072;DHT22;51663;52.310;17.016;2023-07-28T08:21:29;38.80;39.60
65072;DHT22;51663;52.310;17.016;2023-07-28T08:24:33;38.90;40.00
65072;DHT22;51663;52.310;17.016;2023-07-28T08:27:36;39.10;39.80
65072;DHT22;51663;52.310;17.016;2023-07-28T08:30:38;39.40;39.80
65072;DHT22;51663;52.310;17.016;2023-07-28T08:33:40;39.60;39.60
65072;DHT22;51663;52.310;17.016;2023-07-28T08:36:43;39.60;39.40
65072;DHT22;51663;52.310;17.016;2023-07-28T08:39:45;39.70;39.00
65072;DHT22;51663;52.310;17.016;2023-07-28T08:42:51;39.60;39.70
65072;DHT22;51663;52.310;17.016;2023-07-28T08:45:55;39.70;40.10
65072;DHT22;51663;52.310;17.016;2023-07-28T08:48:57;39.90;39.80
65072;DHT22;51663;52.310;17.016;2023-07-28T08:52:00;40.10;39.10
65072;DHT22;51663;52.310;17.016;2023-07-28T08:55:03;40.30;39.80
65072;DHT22;51663;52.310;17.016;2023-07-28T08:58:16;40.40;38.70
65072;DHT22;51663;52.310;17.016;2023-07-28T09:01:39;40.70;39.60
65072;DHT22;51663;52.310;17.016;2023-07-28T09:04:43;41.00;38.00
65072;DHT22;51663;52.310;17.016;2023-07-28T09:07:45;40.90;37.50
65072;DHT22;51663;52.310;17.016;2023-07-28T09:10:49;41.00;37.70
65072;DHT22;51663;52.310;17.016;2023-07-28T09:13:53;41.00;37.40
65072;DHT22;51663;52.310;17.016;2023-07-28T09:16:56;40.90;36.70
65072;DHT22;51663;52.310;17.016;2023-07-28T09:20:02;41.10;38.10
65072;DHT22;51663;52.310;17.016;2023-07-28T09:23:10;40.90;36.90
65072;DHT22;51663;52.310;17.016;2023-07-28T09:26:12;41.00;37.20
65072;DHT22;51663;52.310;17.016;2023-07-28T09:29:20;40.90;37.30
65072;DHT22;51663;52.310;17.016;2023-07-28T09:32:31;40.90;36.70
65072;DHT22;51663;52.310;17.016;2023-07-28T09:35:50;40.70;36.90
65072;DHT22;51663;52.310;17.016;2023-07-28T09:38:55;41.20;36.10
65072;DHT22;51663;52.310;17.016;2023-07-28T09:42:02;41.10;35.90
65072;DHT22;51663;52.310;17.016;2023-07-28T09:45:11;41.10;36.40
65072;DHT22;51663;52.310;17.016;2023-07-28T09:48:32;40.80;36.60
65072;DHT22;51663;52.310;17.016;2023-07-28T09:51:36;40.70;37.60
65072;DHT22;51663;52.310;17.016;2023-07-28T09:54:41;40.70;36.90
65072;DHT22;51663;52.310;17.016;2023-07-28T09:57:46;40.70;37.30
65072;DHT22;51663;52.310;17.016;2023-07-28T10:00:52;40.80;36.30
65072;DHT22;51663;52.310;17.016;2023-07-28T10:03:56;41.10;36.40
65072;DHT22;51663;52.310;17.016;2023-07-28T10:06:58;41.30;36.20
65072;DHT22;51663;52.310;17.016;2023-07-28T10:10:04;40.80;35.80
65072;DHT22;51663;52.310;17.016;2023-07-28T10:13:19;41.00;36.00
65072;DHT22;51663;52.310;17.016;2023-07-28T10:16:37;41.00;35.70
65072;DHT22;51663;52.310;17.016;2023-07-28T10:19:43;40.70;36.00
65072;DHT22;51663;52.310;17.016;2023-07-28T10:22:45;40.00;37.40
65072;DHT22;51663;52.310;17.016;2023-07-28T10:26:11;39.70;39.20
65072;DHT22;51663;52.310;17.016;2023-07-28T10:29:19;39.90;39.30
65072;DHT22;51663;52.310;17.016;2023-07-28T10:32:26;39.70;39.00
65072;DHT22;51663;52.310;17.016;2023-07-28T10:35:31;39.80;39.70
65072;DHT22;51663;52.310;17.016;2023-07-28T10:38:36;40.10;40.20
65072;DHT22;51663;52.310;17.016;2023-07-28T10:41:40;40.20;39.40
65072;DHT22;51663;52.310;17.016;2023-07-28T10:44:47;40.40;39.90
65072;DHT22;51663;52.310;17.016;2023-07-28T10:47:55;40.70;40.30
65072;DHT22;51663;52.310;17.016;2023-07-28T10:50:59;41.00;39.60
65072;DHT22;51663;52.310;17.016;2023-07-28T10:54:06;41.30;40.50
65072;DHT22;51663;52.310;17.016;2023-07-28T10:57:11;41.50;39.10
65072;DHT22;51663;52.310;17.016;2023-07-28T11:00:18;41.60;37.70
65072;DHT22;51663;52.310;17.016;2023-07-28T11:03:25;41.80;38.00
65072;DHT22;51663;52.310;17.016;2023-07-28T11:06:42;41.70;38.50
65072;DHT22;51663;52.310;17.016;2023-07-28T11:09:47;41.70;38.10
65072;DHT22;51663;52.310;17.016;2023-07-28T11:12:51;41.80;37.40
65072;DHT22;51663;52.310;17.016;2023-07-28T11:15:54;41.80;36.20
65072;DHT22;51663;52.310;17.016;2023-07-28T11:18:57;41.90;37.40
65072;DHT22;51663;52.310;17.016;2023-07-28T11:22:02;41.60;37.20
65072;DHT22;51663;52.310;17.016;2023-07-28T11:25:06;41.20;36.70
65072;DHT22;51663;52.310;17.016;2023-07-28T11:28:12;40.60;37.30
65072;DHT22;51663;52.310;17.016;2023-07-28T11:31:14;39.80;38.90
65072;DHT22;51663;52.310;17.016;2023-07-28T11:34:17;39.10;39.50
65072;DHT22;51663;52.310;17.016;2023-07-28T11:37:20;38.90;40.50
65072;DHT22;51663;52.310;17.016;2023-07-28T11:40:24;38.80;41.10
65072;DHT22;51663;52.310;17.016;2023-07-28T11:43:27;38.60;42.30
65072;DHT22;51663;52.310;17.016;2023-07-28T11:46:37;38.60;42.20
65072;DHT22;51663;52.310;17.016;2023-07-28T11:49:50;38.90;43.10
65072;DHT22;51663;52.310;17.016;2023-07-28T11:52:54;39.10;42.40
65072;DHT22;51663;52.310;17.016;2023-07-28T11:55:58;39.40;42.00
65072;DHT22;51663;52.310;17.016;2023-07-28T11:59:04;39.30;42.50
65072;DHT22;51663;52.310;17.016;2023-07-28T12:02:07;39.60;42.20
65072;DHT22;51663;52.310;17.016;2023-07-28T12:05:16;39.70;41.40
65072;DHT22;51663;52.310;17.016;2023-07-28T12:08:38;39.40;41.50
65072;DHT22;51663;52.310;17.016;2023-07-28T12:11:43;39.80;42.00
65072;DHT22;51663;52.310;17.016;2023-07-28T12:14:49;39.90;40.50
65072;DHT22;51663;52.310;17.016;2023-07-28T12:18:14;39.80;40.50
65072;DHT22;51663;52.310;17.016;2023-07-28T12:21:20;40.10;40.50
65072;DHT22;51663;52.310;17.016;2023-07-28T12:24:22;40.10;40.50
65072;DHT22;51663;52.310;17.016;2023-07-28T12:27:25;40.70;40.30
65072;DHT22;51663;52.310;17.016;2023-07-28T12:30:35;41.10;38.40
65072;DHT22;51663;52.310;17.016;2023-07-28T12:33:37;41.20;38.10
65072;DHT22;51663;52.310;17.016;2023-07-28T12:36:41;41.10;37.60
65072;DHT22;51663;52.310;17.016;2023-07-28T12:39:46;41.10;37.30
65072;DHT22;51663;52.310;17.016;2023-07-28T12:42:51;41.30;36.80
65072;DHT22;51663;52.310;17.016;2023-07-28T12:45:57;41.20;36.90
65072;DHT22;51663;52.310;17.016;2023-07-28T12:49:02;41.50;36.60
65072;DHT22;51663;52.310;17.016;2023-07-28T12:52:05;41.60;36.50
65072;DHT22;51663;52.310;17.016;2023-07-28T12:55:21;41.70;36.30
65072;DHT22;51663;52.310;17.016;2023-07-28T12:58:24;42.00;34.80
65072;DHT22;51663;52.310;17.016;2023-07-28T13:01:30;42.10;35.70
65072;DHT22;51663;52.310;17.016;2023-07-28T13:04:32;42.00;35.30
65072;DHT22;51663;52.310;17.016;2023-07-28T13:07:34;42.00;37.60
65072;DHT22;51663;52.310;17.016;2023-07-28T13:10:40;41.90;36.90
65072;DHT22;51663;52.310;17.016;2023-07-28T13:13:51;41.80;36.40
65072;DHT22;51663;52.310;17.016;2023-07-28T13:16:53;41.30;36.00
65072;DHT22;51663;52.310;17.016;2023-07-28T13:19:56;40.90;35.80
65072;DHT22;51663;52.310;17.016;2023-07-28T13:23:02;40.90;35.50
65072;DHT22;51663;52.310;17.016;2023-07-28T13:26:04;39.80;37.10
65072;DHT22;51663;52.310;17.016;2023-07-28T13:29:08;39.20;38.00
65072;DHT22;51663;52.310;17.016;2023-07-28T13:32:18;38.10;39.90
65072;DHT22;51663;52.310;17.016;2023-07-28T13:35:20;38.50;40.60
65072;DHT22;51663;52.310;17.016;2023-07-28T13:38:23;39.00;39.80
65072;DHT22;51663;52.310;17.016;2023-07-28T13:41:25;39.10;39.90
65072;DHT22;51663;52.310;17.016;2023-07-28T13:44:27;39.00;40.70
65072;DHT22;51663;52.310;17.016;2023-07-28T13:47:33;38.90;41.10
65072;DHT22;51663;52.310;17.016;2023-07-28T13:50:35;38.50;40.20
65072;DHT22;51663;52.310;17.016;2023-07-28T13:53:39;38.40;40.60
65072;DHT22;51663;52.310;17.016;2023-07-28T13:56:41;38.10;41.20
65072;DHT22;51663;52.310;17.016;2023-07-28T14:00:03;37.90;41.80
65072;DHT22;51663;52.310;17.016;2023-07-28T14:03:11;38.00;42.00
65072;DHT22;51663;52.310;17.016;2023-07-28T14:06:13;38.10;42.40
65072;DHT22;51663;52.310;17.016;2023-07-28T14:09:15;38.50;42.50
65072;DHT22;51663;52.310;17.016;2023-07-28T14:12:18;38.80;42.20
65072;DHT22;51663;52.310;17.016;2023-07-28T14:15:20;38.90;42.20
65072;DHT22;51663;52.310;17.016;2023-07-28T14:18:22;38.90;41.50
65072;DHT22;51663;52.310;17.016;2023-07-28T14:21:27;39.00;40.70
65072;DHT22;51663;52.310;17.016;2023-07-28T14:24:29;39.20;40.80
65072;DHT22;51663;52.310;17.016;2023-07-28T14:27:32;39.30;40.40
65072;DHT22;51663;52.310;17.016;2023-07-28T14:30:33;39.40;40.50
65072;DHT22;51663;52.310;17.016;2023-07-28T14:33:36;39.40;40.30
65072;DHT22;51663;52.310;17.016;2023-07-28T14:36:40;39.50;40.50
65072;DHT22;51663;52.310;17.016;2023-07-28T14:39:43;39.40;40.50
65072;DHT22;51663;52.310;17.016;2023-07-28T14:42:45;39.70;41.10
65072;DHT22;51663;52.310;17.016;2023-07-28T14:45:49;39.80;40.80
65072;DHT22;51663;52.310;17.016;2023-07-28T14:48:52;39.90;40.30
65072;DHT22;51663;52.310;17.016;2023-07-28T14:51:55;40.00;40.30
65072;DHT22;51663;52.310;17.016;2023-07-28T14:54:57;40.10;40.60
65072;DHT22;51663;52.310;17.016;2023-07-28T14:58:00;40.20;40.10
65072;DHT22;51663;52.310;17.016;2023-07-28T15:01:03;40.40;40.10
65072;DHT22;51663;52.310;17.016;2023-07-28T15:04:08;40.50;39.90
65072;DHT22;51663;52.310;17.016;2023-07-28T15:07:12;40.50;39.80
65072;DHT22;51663;52.310;17.016;2023-07-28T15:10:17;40.60;39.60
65072;DHT22;51663;52.310;17.016;2023-07-28T15:13:22;40.60;39.20
65072;DHT22;51663;52.310;17.016;2023-07-28T15:16:24;40.60;39.60
65072;DHT22;51663;52.310;17.016;2023-07-28T15:19:26;40.60;40.20
65072;DHT22;51663;52.310;17.016;2023-07-28T15:22:28;40.70;39.90
65072;DHT22;51663;52.310;17.016;2023-07-28T15:25:31;40.80;39.20
65072;DHT22;51663;52.310;17.016;2023-07-28T15:28:33;40.90;39.40
65072;DHT22;51663;52.310;17.016;2023-07-28T15:31:35;40.90;39.50
65072;DHT22;51663;52.310;17.016;2023-07-28T15:34:38;40.80;39.30
65072;DHT22;51663;52.310;17.016;2023-07-28T15:37:40;40.80;39.60
65072;DHT22;51663;52.310;17.016;2023-07-28T15:40:42;40.70;39.10
65072;DHT22;51663;52.310;17.016;2023-07-28T15:43:44;40.90;39.00
65072;DHT22;51663;52.310;17.016;2023-07-28T15:46:47;40.80;38.40
65072;DHT22;51663;52.310;17.016;2023-07-28T15:49:51;40.80;37.60
65072;DHT22;51663;52.310;17.016;2023-07-28T15:52:55;40.60;38.50
65072;DHT22;51663;52.310;17.016;2023-07-28T15:55:58;40.70;38.70
65072;DHT22;51663;52.310;17.016;2023-07-28T15:59:01;40.70;37.90
65072;DHT22;51663;52.310;17.016;2023-07-28T16:02:04;40.70;38.10
65072;DHT22;51663;52.310;17.016;2023-07-28T16:05:07;40.60;38.20
65072;DHT22;51663;52.310;17.016;2023-07-28T16:08:10;40.50;38.30
65072;DHT22;51663;52.310;17.016;2023-07-28T16:11:13;40.60;39.00
65072;DHT22;51663;52.310;17.016;2023-07-28T16:14:16;40.60;38.50
65072;DHT22;51663;52.310;17.016;2023-07-28T16:17:19;40.60;39.10
65072;DHT22;51663;52.310;17.016;2023-07-28T16:20:21;40.70;37.90
65072;DHT22;51663;52.310;17.016;2023-07-28T16:23:23;40.80;38.10
65072;DHT22;51663;52.310;17.016;2023-07-28T16:26:25;40.70;38.50
65072;DHT22;51663;52.310;17.016;2023-07-28T16:29:28;40.60;38.50
65072;DHT22;51663;52.310;17.016;2023-07-28T16:32:30;40.60;39.30
65072;DHT22;51663;52.310;17.016;2023-07-28T16:35:34;40.60;37.90
65072;DHT22;51663;52.310;17.016;2023-07-28T16:38:36;40.50;38.60
65072;DHT22;51663;52.310;17.016;2023-07-28T16:41:38;40.40;37.90
65072;DHT22;51663;52.310;17.016;2023-07-28T16:44:40;40.40;37.80
65072;DHT22;51663;52.310;17.016;2023-07-28T16:47:42;40.40;37.50
65072;DHT22;51663;52.310;17.016;2023-07-28T16:50:45;40.40;38.30
65072;DHT22;51663;52.310;17.016;2023-07-28T16:53:47;40.30;37.40
65072;DHT22;51663;52.310;17.016;2023-07-28T16:56:49;40.20;37.80
65072;DHT22;51663;52.310;17.016;2023-07-28T16:59:51;40.30;37.80
65072;DHT22;51663;52.310;17.016;2023-07-28T17:02:54;40.20;37.90
65072;DHT22;51663;52.310;17.016;2023-07-28T17:05:59;40.20;37.20
65072;DHT22;51663;52.310;17.016;2023-07-28T17:09:01;40.20;38.30
65072;DHT22;51663;52.310;17.016;2023-07-28T17:12:04;40.20;38.20
65072;DHT22;51663;52.310;17.016;2023-07-28T17:15:07;40.10;37.70
65072;DHT22;51663;52.310;17.016;2023-07-28T17:18:09;40.10;37.80
65072;DHT22;51663;52.310;17.016;2023-07-28T17:21:12;40.10;37.00
65072;DHT22;51663;52.310;17.016;2023-07-28T17:24:14;40.00;37.10
65072;DHT22;51663;52.310;17.016;2023-07-28T17:27:16;39.90;37.00
65072;DHT22;51663;52.310;17.016;2023-07-28T17:30:18;39.90;36.80
65072;DHT22;51663;52.310;17.016;2023-07-28T17:33:20;39.60;37.00
65072;DHT22;51663;52.310;17.016;2023-07-28T17:36:23;39.80;37.20
65072;DHT22;51663;52.310;17.016;2023-07-28T17:39:25;39.80;37.00
65072;DHT22;51663;52.310;17.016;2023-07-28T17:42:27;39.80;37.30
65072;DHT22;51663;52.310;17.016;2023-07-28T17:45:29;39.70;36.90
65072;DHT22;51663;52.310;17.016;2023-07-28T17:48:32;39.80;37.50
65072;DHT22;51663;52.310;17.016;2023-07-28T17:51:34;39.80;37.40
65072;DHT22;51663;52.310;17.016;2023-07-28T17:54:38;39.80;37.90
65072;DHT22;51663;52.310;17.016;2023-07-28T17:57:40;39.80;38.40
65072;DHT22;51663;52.310;17.016;2023-07-28T18:00:43;39.90;37.70
65072;DHT22;51663;52.310;17.016;2023-07-28T18:03:45;39.90;37.80
65072;DHT22;51663;52.310;17.016;2023-07-28T18:06:47;39.90;37.30
65072;DHT22;51663;52.310;17.016;2023-07-28T18:09:49;39.90;37.20
65072;DHT22;51663;52.310;17.016;2023-07-28T18:12:54;39.90;37.40
65072;DHT22;51663;52.310;17.016;2023-07-28T18:15:56;39.90;37.10
65072;DHT22;51663;52.310;17.016;2023-07-28T18:18:58;39.70;37.50
65072;DHT22;51663;52.310;17.016;2023-07-28T18:22:00;39.70;37.30
65072;DHT22;51663;52.310;17.016;2023-07-28T18:25:02;39.70;37.30
65072;DHT22;51663;52.310;17.016;2023-07-28T18:28:04;39.70;37.70
65072;DHT22;51663;52.310;17.016;2023-07-28T18:31:07;39.70;37.60
65072;DHT22;51663;52.310;17.016;2023-07-28T18:34:11;39.60;37.40
65072;DHT22;51663;52.310;17.016;2023-07-28T18:37:13;39.60;37.60
65072;DHT22;51663;52.310;17.016;2023-07-28T18:40:15;39.60;37.90
65072;DHT22;51663;52.310;17.016;2023-07-28T18:43:17;39.50;37.90
65072;DHT22;51663;52.310;17.016;2023-07-28T18:46:20;39.50;38.20
65072;DHT22;51663;52.310;17.016;2023-07-28T18:49:22;39.40;38.00
65072;DHT22;51663;52.310;17.016;2023-07-28T18:52:24;39.40;38.20
65072;DHT22;51663;52.310;17.016;2023-07-28T18:55:28;39.40;37.90
65072;DHT22;51663;52.310;17.016;2023-07-28T18:58:30;39.40;38.50
65072;DHT22;51663;52.310;17.016;2023-07-28T19:01:33;39.40;38.10
65072;DHT22;51663;52.310;17.016;2023-07-28T19:04:35;39.50;38.30
65072;DHT22;51663;52.310;17.016;2023-07-28T19:07:38;39.50;38.70